עמוד ראשי
METAR-TAF:

METAR-TAF

שדות תעופה :

Florø, נורבגיה

קו רוחב: 61-35N, קו אורך: 005-02E, גובה: 0מטר

תצפית מזג אוויר נוכחית

הדו"ח נערך לפני 37דקות, בשעה 23:20 UTC
רוח 12קשר מכיוון צפון/צפון-מערב
טמפרטורת 10 צלסיוס
לחות 93%
לחץ 1015 hPa
ראות: 8000מטר
ממטרי גשם קלים,

METAR: ENFL 182320Z AUTO 33012KT 8000NDV -SHRA OVC018/// 10/09 Q1015

זמן: 01:57 (23:57 UTC)

תחזית

הדו"ח נערך לפני 57דקות, בשעה 23:00 UTC
תחזית בתוקף מ 19 ב 00 UTC עד 19 ב 09 UTC
רוח 12קשר מכיוון צפון/צפון-מערב
ראות 10 קילומטר או יותר
מעונן בגובה 800רגל
יעשה מ
19 ב 01 UTC עד 19 ב 03 UTC
מעט עננים בגובה 1000רגל
עננים בינוניים בגובה 2500רגל

TAF: ENFL 182300Z 1900/1909 34012KT 9999 OVC008 BECMG 1901/1903 FEW010 BKN025

תצפיות ותחזיות מזג אוויר לגבי יותר מ- 4,000 שדות תעופה ברחבי העולם. דוחות METAR ו- TAF.

התחנות הזמינות מסומנות בנקודות צהובות ואדומות על גבי המפה.

העבר את העכבר לנקודה הצבעונית על מנת לראות את שם התחנה.

לאחר מכן, לחץ כדי לראות את תוכן ואת תחזיות מזג האוויר.

כדי לשנות את המפה: לחץ על הכפתורים הירוקים עם הפלוס השחור כדי להתקרב; על הכפתור הירוק עם המקף כדי להתרחק; או בחיצים הירוקים למפות סמוכות.


METAR-TAF: